createdAt,value
2018-07-09T00:02:16.651Z,2.57
2018-07-09T00:04:43.837Z,2.80
2018-07-09T00:07:11.023Z,3.40
2018-07-09T00:09:38.534Z,2.70
2018-07-09T00:12:05.723Z,2.30
2018-07-09T00:14:32.921Z,3.10
2018-07-09T00:17:00.107Z,2.67
2018-07-09T00:19:27.301Z,2.60
2018-07-09T00:21:54.810Z,3.07
2018-07-09T00:24:21.999Z,2.60
2018-07-09T00:26:49.197Z,3.10
2018-07-09T00:29:16.700Z,2.83
2018-07-09T00:31:43.942Z,3.20
2018-07-09T00:34:11.137Z,2.40
2018-07-09T00:36:38.310Z,3.20
2018-07-09T00:39:06.137Z,2.20
2018-07-09T00:41:34.637Z,2.80
2018-07-09T00:44:01.893Z,2.43
2018-07-09T00:46:29.152Z,3.40
2018-07-09T00:48:56.368Z,2.43
2018-07-09T00:51:23.849Z,2.73
2018-07-09T00:53:51.065Z,2.50
2018-07-09T00:56:18.249Z,2.43
2018-07-09T00:58:45.750Z,2.83
2018-07-09T01:01:12.957Z,2.80
2018-07-09T01:03:40.125Z,2.57
2018-07-09T01:06:07.319Z,2.60
2018-07-09T01:08:34.529Z,1.97
2018-07-09T01:11:13.516Z,2.23
2018-07-09T01:13:44.749Z,2.23
2018-07-09T01:16:12.157Z,2.13
2018-07-09T01:18:39.942Z,1.80
2018-07-09T01:21:09.329Z,3.00
2018-07-09T01:23:37.097Z,2.20
2018-07-09T01:26:04.697Z,2.20
2018-07-09T01:28:32.135Z,2.20
2018-07-09T01:30:59.316Z,2.73
2018-07-09T01:33:26.894Z,1.80
2018-07-09T01:35:54.113Z,2.53
2018-07-09T01:38:21.284Z,3.17
2018-07-09T01:40:48.866Z,2.43
2018-07-09T01:43:16.041Z,3.07
2018-07-09T01:45:43.273Z,2.10
2018-07-09T01:48:10.841Z,3.33
2018-07-09T01:50:38.068Z,2.27
2018-07-09T01:53:05.238Z,2.27
2018-07-09T01:55:32.817Z,2.47
2018-07-09T01:57:59.997Z,2.40
2018-07-09T02:00:27.203Z,2.93
2018-07-09T02:02:54.390Z,2.93
2018-07-09T02:05:21.561Z,3.70
2018-07-09T02:07:48.828Z,2.70
2018-07-09T02:10:16.362Z,2.87
2018-07-09T02:12:43.545Z,2.80
2018-07-09T02:15:10.753Z,3.33
2018-07-09T02:17:38.076Z,2.50
2018-07-09T02:20:05.520Z,3.53
2018-07-09T02:22:32.752Z,2.80
2018-07-09T02:25:00.217Z,4.70
2018-07-09T02:27:27.514Z,4.17
2018-07-09T02:29:54.702Z,4.33
2018-07-09T02:32:24.240Z,3.57
2018-07-09T02:34:51.439Z,3.60
2018-07-09T02:37:18.646Z,4.30
2018-07-09T02:39:46.093Z,4.00
2018-07-09T02:42:13.275Z,3.33
2018-07-09T02:44:40.435Z,4.10
2018-07-09T02:47:09.948Z,3.57
2018-07-09T02:49:37.190Z,4.13
2018-07-09T02:52:04.631Z,3.80
2018-07-09T02:54:31.817Z,4.37
2018-07-09T02:56:58.993Z,4.00
2018-07-09T02:59:26.237Z,3.70
2018-07-09T03:01:53.410Z,3.10
2018-07-09T03:04:22.893Z,3.40
2018-07-09T03:06:50.071Z,3.33
2018-07-09T03:09:17.289Z,3.13
2018-07-09T03:11:44.871Z,4.10
2018-07-09T03:14:12.057Z,3.60
2018-07-09T03:16:39.261Z,4.43
2018-07-09T03:19:06.760Z,4.10
2018-07-09T03:21:34.001Z,4.63
2018-07-09T03:24:01.113Z,3.70
2018-07-09T03:26:28.282Z,4.10
2018-07-09T03:28:55.449Z,3.87
2018-07-09T03:31:22.621Z,3.27
2018-07-09T03:33:49.857Z,4.07
2018-07-09T03:36:17.065Z,3.07
2018-07-09T03:38:44.273Z,4.47
2018-07-09T03:41:11.429Z,3.23
2018-07-09T03:43:38.605Z,4.67
2018-07-09T03:46:05.783Z,6.93
2018-07-09T03:48:32.945Z,6.37
2018-07-09T03:51:00.153Z,5.77
2018-07-09T03:53:27.329Z,4.90
2018-07-09T03:55:54.501Z,5.27
2018-07-09T03:58:22.023Z,5.27
2018-07-09T04:00:49.185Z,6.03
2018-07-09T04:03:16.361Z,4.67
2018-07-09T04:05:43.537Z,6.27
2018-07-09T04:08:10.760Z,4.73
2018-07-09T04:10:37.932Z,3.63
2018-07-09T04:13:05.121Z,4.23
2018-07-09T04:15:32.342Z,4.40
2018-07-09T04:17:59.522Z,4.20
2018-07-09T04:20:26.937Z,3.80
2018-07-09T04:22:54.121Z,3.40
2018-07-09T04:25:23.424Z,4.30
2018-07-09T04:27:50.656Z,4.90
2018-07-09T04:30:17.849Z,3.20
2018-07-09T04:32:45.402Z,4.57
2018-07-09T04:35:12.575Z,3.27
2018-07-09T04:37:39.810Z,4.20
2018-07-09T04:40:07.002Z,2.90
2018-07-09T04:42:34.206Z,4.53
2018-07-09T04:45:01.357Z,3.60
2018-07-09T04:47:28.845Z,5.40
2018-07-09T04:49:55.985Z,5.73
2018-07-09T04:52:23.146Z,6.50
2018-07-09T04:54:50.493Z,4.70
2018-07-09T04:57:17.651Z,5.73
2018-07-09T04:59:44.805Z,5.97
2018-07-09T05:02:12.290Z,5.07
2018-07-09T05:04:39.463Z,5.87
2018-07-09T05:07:06.637Z,5.60
2018-07-09T05:09:33.837Z,4.33
2018-07-09T05:12:01.325Z,4.70
2018-07-09T05:14:28.499Z,5.47
2018-07-09T05:16:55.645Z,4.60
2018-07-09T05:19:22.813Z,4.07
2018-07-09T05:21:49.966Z,7.33
2018-07-09T05:24:17.165Z,5.00
2018-07-09T05:26:44.325Z,5.27
2018-07-09T05:29:11.477Z,4.80
2018-07-09T05:31:38.646Z,5.10
2018-07-09T05:34:07.877Z,3.73
2018-07-09T05:36:35.023Z,4.10
2018-07-09T05:39:02.245Z,4.43
2018-07-09T05:41:29.417Z,4.80
2018-07-09T05:43:56.633Z,3.10
2018-07-09T05:46:23.846Z,3.97
2018-07-09T05:48:51.057Z,3.50
2018-07-09T05:51:18.569Z,3.53
2018-07-09T05:53:45.713Z,3.27
2018-07-09T05:56:12.875Z,2.27
2018-07-09T05:58:40.035Z,3.90
2018-07-09T06:01:07.216Z,3.80
2018-07-09T06:03:34.440Z,2.90
2018-07-09T06:06:01.610Z,2.20
2018-07-09T06:08:29.276Z,2.67
2018-07-09T06:10:56.457Z,3.60
2018-07-09T06:13:23.603Z,4.70
2018-07-09T06:15:51.049Z,4.00
2018-07-09T06:18:18.205Z,3.87
2018-07-09T06:20:45.373Z,4.17
2018-07-09T06:23:12.557Z,4.70
2018-07-09T06:25:39.710Z,3.63
2018-07-09T06:28:06.878Z,4.67
2018-07-09T06:30:34.335Z,4.63
2018-07-09T06:33:01.498Z,5.70
2018-07-09T06:35:28.638Z,5.20
2018-07-09T06:37:55.797Z,5.80
2018-07-09T06:40:22.960Z,4.00
2018-07-09T06:42:50.118Z,4.10
2018-07-09T06:45:17.285Z,2.37
2018-07-09T06:47:44.726Z,4.63
2018-07-09T06:50:11.921Z,3.83
2018-07-09T06:52:39.079Z,4.07
2018-07-09T06:55:06.253Z,3.33
2018-07-09T06:57:33.409Z,4.07
2018-07-09T07:00:00.770Z,4.07
2018-07-09T07:02:27.927Z,3.87
2018-07-09T07:04:55.083Z,3.93
2018-07-09T07:07:22.262Z,3.43
2018-07-09T07:09:49.469Z,2.20
2018-07-09T07:12:16.625Z,3.53
2018-07-09T07:14:44.117Z,2.97
2018-07-09T07:17:11.264Z,3.23
2018-07-09T07:19:38.412Z,3.40
2018-07-09T07:22:05.889Z,3.17
2018-07-09T07:24:33.041Z,2.50
2018-07-09T07:27:00.191Z,2.20
2018-07-09T07:29:27.757Z,5.87
2018-07-09T07:31:54.917Z,3.80
2018-07-09T07:34:22.063Z,3.17
2018-07-09T07:36:49.233Z,2.00
2018-07-09T07:39:16.400Z,3.23
2018-07-09T07:41:43.559Z,3.47
2018-07-09T07:44:11.101Z,2.30
2018-07-09T07:46:38.245Z,1.90
2018-07-09T07:49:05.385Z,2.73
2018-07-09T07:51:32.877Z,1.60
2018-07-09T07:54:00.035Z,1.80
2018-07-09T07:56:27.202Z,2.10
2018-07-09T07:58:54.645Z,2.63
2018-07-09T08:01:21.809Z,2.50
2018-07-09T08:03:48.963Z,2.17
2018-07-09T08:06:16.425Z,3.53
2018-07-09T08:08:43.601Z,2.17
2018-07-09T08:11:11.223Z,2.40
2018-07-09T08:13:38.315Z,2.20
2018-07-09T08:16:05.838Z,1.73
2018-07-09T08:18:32.985Z,3.23
2018-07-09T08:21:00.478Z,3.67
2018-07-09T08:23:27.641Z,2.33
2018-07-09T08:25:54.789Z,3.23
2018-07-09T08:28:21.953Z,3.07
2018-07-09T08:30:49.117Z,2.37
2018-07-09T08:33:16.288Z,2.67
2018-07-09T08:35:43.485Z,2.53
2018-07-09T08:38:10.982Z,3.10
2018-07-09T08:40:38.317Z,5.20
2018-07-09T08:43:05.481Z,4.53
2018-07-09T08:45:32.957Z,3.00
2018-07-09T08:48:00.114Z,2.73
2018-07-09T08:50:27.270Z,2.97
2018-07-09T08:52:54.733Z,2.30
2018-07-09T08:55:21.965Z,2.37
2018-07-09T08:57:49.045Z,2.63
2018-07-09T09:00:16.214Z,3.20
2018-07-09T09:02:43.385Z,1.90
2018-07-09T09:05:10.581Z,2.33
2018-07-09T09:07:38.069Z,2.13
2018-07-09T09:10:05.251Z,2.30
2018-07-09T09:12:32.417Z,1.93
2018-07-09T09:14:59.561Z,2.63
2018-07-09T09:17:26.796Z,2.20
2018-07-09T09:19:54.313Z,2.20
2018-07-09T09:22:21.493Z,2.13
2018-07-09T09:24:49.636Z,1.70
2018-07-09T09:27:17.166Z,2.10
2018-07-09T09:29:44.336Z,1.70
2018-07-09T09:32:11.549Z,2.10
2018-07-09T09:34:39.038Z,2.50
2018-07-09T09:37:06.193Z,2.90
2018-07-09T09:39:34.577Z,2.80
2018-07-09T09:42:01.757Z,3.63
2018-07-09T09:44:29.038Z,3.07
2018-07-09T09:46:56.221Z,2.80
2018-07-09T09:49:23.419Z,3.40
2018-07-09T09:51:50.593Z,2.20
2018-07-09T09:54:17.732Z,2.13
2018-07-09T09:56:44.945Z,3.10
2018-07-09T09:59:12.069Z,2.43
2018-07-09T10:01:39.229Z,2.43
2018-07-09T10:04:06.358Z,3.80
2018-07-09T10:06:33.545Z,2.50
2018-07-09T10:09:00.702Z,2.80
2018-07-09T10:11:27.861Z,2.73
2018-07-09T10:13:55.265Z,3.13
2018-07-09T10:16:22.462Z,3.47
2018-07-09T10:18:49.613Z,3.03
2018-07-09T10:21:16.805Z,2.93
2018-07-09T10:23:44.285Z,3.57
2018-07-09T10:26:11.452Z,3.70
2018-07-09T10:28:38.611Z,3.27
2018-07-09T10:31:05.756Z,3.70
2018-07-09T10:33:32.917Z,3.23
2018-07-09T10:36:00.102Z,2.70
2018-07-09T10:38:27.309Z,2.97
2018-07-09T10:40:54.482Z,2.20
2018-07-09T10:43:21.601Z,2.10
2018-07-09T10:45:48.861Z,2.03
2018-07-09T10:48:16.018Z,2.50
2018-07-09T10:50:43.193Z,2.30
2018-07-09T10:53:10.353Z,2.37
2018-07-09T10:55:37.690Z,2.47
2018-07-09T10:58:04.839Z,2.03
2018-07-09T11:00:34.287Z,2.37
2018-07-09T11:03:01.453Z,2.90
2018-07-09T11:05:28.598Z,2.40
2018-07-09T11:07:56.118Z,2.33
2018-07-09T11:10:23.265Z,3.27
2018-07-09T11:12:50.430Z,2.77
2018-07-09T11:15:17.581Z,2.93
2018-07-09T11:17:44.741Z,2.83
2018-07-09T11:20:11.918Z,2.80
2018-07-09T11:22:39.409Z,2.23
2018-07-09T11:25:06.581Z,2.77
2018-07-09T11:27:33.746Z,2.47
2018-07-09T11:30:00.918Z,2.97
2018-07-09T11:32:28.513Z,2.33
2018-07-09T11:34:55.861Z,1.80
2018-07-09T11:37:23.357Z,2.20
2018-07-09T11:39:50.513Z,1.70
2018-07-09T11:42:17.657Z,1.40
2018-07-09T11:44:44.842Z,1.50
2018-07-09T11:47:12.027Z,1.83
2018-07-09T11:49:39.182Z,1.13
2018-07-09T11:52:06.623Z,1.60
2018-07-09T11:54:33.761Z,1.70
2018-07-09T11:57:01.081Z,1.67
2018-07-09T11:59:28.230Z,1.70
2018-07-09T12:01:55.402Z,1.20
2018-07-09T12:04:22.533Z,2.23
2018-07-09T12:06:49.677Z,1.50
2018-07-09T12:09:16.825Z,1.63
2018-07-09T12:11:44.053Z,1.30
2018-07-09T12:14:11.201Z,1.53
2018-07-09T12:16:38.386Z,1.20
2018-07-09T12:19:06.021Z,1.57
2018-07-09T12:21:33.215Z,2.20
2018-07-09T12:24:00.344Z,1.50
2018-07-09T12:26:27.565Z,1.80
2018-07-09T12:28:54.762Z,1.70
2018-07-09T12:31:21.877Z,2.50
2018-07-09T12:33:49.067Z,1.63
2018-07-09T12:36:16.464Z,1.63
2018-07-09T12:38:43.649Z,2.30
2018-07-09T12:41:10.813Z,2.10
2018-07-09T12:43:38.007Z,2.03
2018-07-09T12:46:05.464Z,2.20
2018-07-09T12:48:32.849Z,2.00
2018-07-09T12:51:00.042Z,3.43
2018-07-09T12:53:27.202Z,2.00
2018-07-09T12:55:54.439Z,3.07
2018-07-09T12:58:21.602Z,1.93
2018-07-09T13:00:48.775Z,2.57
2018-07-09T13:03:16.190Z,2.10
2018-07-09T13:05:43.413Z,3.30
2018-07-09T13:08:10.642Z,1.97
2018-07-09T13:10:39.053Z,2.80
2018-07-09T13:13:06.257Z,2.17
2018-07-09T13:15:33.407Z,2.30
2018-07-09T13:18:00.573Z,1.43
2018-07-09T13:20:27.732Z,1.60
2018-07-09T13:22:54.898Z,1.90
2018-07-09T13:25:22.057Z,1.67
2018-07-09T13:27:49.224Z,1.30
2018-07-09T13:30:16.379Z,2.03
2018-07-09T13:32:43.553Z,1.30
2018-07-09T13:35:10.754Z,1.30
2018-07-09T13:37:37.918Z,1.00
2018-07-09T13:40:05.085Z,1.50
2018-07-09T13:42:32.252Z,1.80
2018-07-09T13:44:59.413Z,1.90
2018-07-09T13:47:26.587Z,2.10
2018-07-09T13:49:53.791Z,1.97
2018-07-09T13:52:21.598Z,1.60
2018-07-09T13:54:48.781Z,2.20
2018-07-09T13:57:15.965Z,1.40
2018-07-09T13:59:43.144Z,1.00
2018-07-09T14:02:10.337Z,1.37
2018-07-09T14:04:37.527Z,0.97
2018-07-09T14:07:04.740Z,1.23
2018-07-09T14:09:31.917Z,1.00
2018-07-09T14:11:59.059Z,0.80
2018-07-09T14:14:26.194Z,1.43
2018-07-09T14:16:53.334Z,1.00
2018-07-09T14:19:26.678Z,1.33
2018-07-09T14:21:53.805Z,1.27
2018-07-09T14:24:20.957Z,1.20
2018-07-09T14:26:48.090Z,1.03
2018-07-09T14:29:15.699Z,1.10
2018-07-09T14:31:42.881Z,1.00
2018-07-09T14:34:10.043Z,1.03
2018-07-09T14:36:37.264Z,0.90
2018-07-09T14:39:05.125Z,0.90
2018-07-09T14:41:32.618Z,1.37
2018-07-09T14:43:59.789Z,1.17
2018-07-09T14:46:26.941Z,1.10
2018-07-09T14:48:54.163Z,1.30
2018-07-09T14:51:21.305Z,0.90
2018-07-09T14:53:48.431Z,1.00
2018-07-09T14:56:15.577Z,1.30
2018-07-09T14:58:43.057Z,0.97
2018-07-09T15:01:10.237Z,1.30
2018-07-09T15:03:37.429Z,1.20
2018-07-09T15:06:04.981Z,0.90
2018-07-09T15:08:32.149Z,1.30
2018-07-09T15:10:59.265Z,1.17
2018-07-09T15:13:26.421Z,1.33
2018-07-09T15:15:53.580Z,1.20
2018-07-09T15:18:20.731Z,0.97
2018-07-09T15:20:49.960Z,1.47
2018-07-09T15:23:17.096Z,1.13
2018-07-09T15:25:44.258Z,1.50
2018-07-09T15:28:11.459Z,1.40
2018-07-09T15:30:38.625Z,1.47
2018-07-09T15:33:05.821Z,1.43
2018-07-09T15:35:33.297Z,1.00
2018-07-09T15:38:00.453Z,1.50
2018-07-09T15:40:27.593Z,1.20
2018-07-09T15:42:55.074Z,0.97
2018-07-09T15:45:22.266Z,1.27
2018-07-09T15:47:49.422Z,1.50
2018-07-09T15:50:17.052Z,1.47
2018-07-09T15:52:44.238Z,2.37
2018-07-09T15:55:11.371Z,1.10
2018-07-09T15:57:38.534Z,1.47
2018-07-09T16:00:05.771Z,1.30
2018-07-09T16:02:32.893Z,1.73
2018-07-09T16:05:00.402Z,1.50
2018-07-09T16:07:27.557Z,1.43
2018-07-09T16:09:54.705Z,2.07
2018-07-09T16:12:22.169Z,4.17
2018-07-09T16:14:49.321Z,3.87
2018-07-09T16:17:16.534Z,2.73
2018-07-09T16:19:44.056Z,2.70
2018-07-09T16:22:11.298Z,1.77
2018-07-09T16:24:38.447Z,1.83
2018-07-09T16:27:05.610Z,1.70
2018-07-09T16:29:32.753Z,2.27
2018-07-09T16:31:59.895Z,1.77
2018-07-09T16:34:27.716Z,3.20
2018-07-09T16:36:54.849Z,3.93
2018-07-09T16:39:21.985Z,2.73
2018-07-09T16:41:49.173Z,2.27
2018-07-09T16:44:16.829Z,2.50
2018-07-09T16:46:44.044Z,1.80
2018-07-09T16:49:11.114Z,2.10
2018-07-09T16:51:38.257Z,1.70
2018-07-09T16:54:05.427Z,2.43
2018-07-09T16:56:32.554Z,2.70
2018-07-09T16:58:59.760Z,2.97
2018-07-09T17:01:26.921Z,2.70
2018-07-09T17:03:54.311Z,2.53
2018-07-09T17:06:21.454Z,2.23
2018-07-09T17:08:50.661Z,2.53
2018-07-09T17:11:17.827Z,2.30
2018-07-09T17:13:45.219Z,2.30
2018-07-09T17:16:12.358Z,3.43
2018-07-09T17:18:39.549Z,2.67
2018-07-09T17:21:06.777Z,3.33
2018-07-09T17:23:33.977Z,3.33
2018-07-09T17:26:01.361Z,3.23
2018-07-09T17:28:28.493Z,3.17
2018-07-09T17:30:55.633Z,2.60
2018-07-09T17:33:24.849Z,3.67
2018-07-09T17:35:51.996Z,2.47
2018-07-09T17:38:19.157Z,3.10
2018-07-09T17:40:46.577Z,2.10
2018-07-09T17:43:13.754Z,3.23
2018-07-09T17:45:40.869Z,2.17
2018-07-09T17:48:08.397Z,2.53
2018-07-09T17:50:35.551Z,2.43
2018-07-09T17:53:02.709Z,2.37
2018-07-09T17:55:29.849Z,2.60
2018-07-09T17:57:56.993Z,2.33
2018-07-09T18:00:24.205Z,2.67
2018-07-09T18:02:51.586Z,2.33
2018-07-09T18:05:18.769Z,2.43
2018-07-09T18:07:46.181Z,2.37
2018-07-09T18:10:13.363Z,2.60
2018-07-09T18:12:40.477Z,1.87
2018-07-09T18:15:07.606Z,2.90
2018-07-09T18:17:34.773Z,2.03
2018-07-09T18:20:01.917Z,1.90
2018-07-09T18:22:29.054Z,1.77
2018-07-09T18:24:56.202Z,2.40
2018-07-09T18:27:23.373Z,2.10
2018-07-09T18:29:50.527Z,1.97
2018-07-09T18:32:18.138Z,2.43
2018-07-09T18:34:45.298Z,2.03
2018-07-09T18:37:12.446Z,2.10
2018-07-09T18:39:39.654Z,2.17
2018-07-09T18:42:06.832Z,1.83
2018-07-09T18:44:33.989Z,1.93
2018-07-09T18:47:01.463Z,2.60
2018-07-09T18:49:28.636Z,1.20
2018-07-09T18:51:55.780Z,1.80
2018-07-09T18:54:22.967Z,1.87
2018-07-09T18:56:50.292Z,1.17
2018-07-09T18:59:17.449Z,1.50
2018-07-09T19:01:44.803Z,1.17
2018-07-09T19:04:11.978Z,0.97
2018-07-09T19:06:52.452Z,1.13
2018-07-09T19:09:20.255Z,1.70
2018-07-09T19:11:47.414Z,1.50
2018-07-09T19:14:14.909Z,0.77
2018-07-09T19:17:53.565Z,1.10
2018-07-09T19:20:32.809Z,1.10
2018-07-09T19:22:59.094Z,1.50
2018-07-09T19:25:25.418Z,1.50
2018-07-09T19:27:51.817Z,2.80
2018-07-09T19:30:18.166Z,1.60
2018-07-09T19:32:44.507Z,0.80
2018-07-09T19:35:10.857Z,0.87
2018-07-09T19:37:37.890Z,0.90
2018-07-09T19:40:03.999Z,0.83
2018-07-09T19:42:30.321Z,1.40
2018-07-09T19:44:56.653Z,1.27
2018-07-09T19:47:23.422Z,1.33
2018-07-09T19:49:49.745Z,1.40
2018-07-09T19:52:16.088Z,1.70
2018-07-09T19:54:42.418Z,1.20
2018-07-09T19:57:09.221Z,1.63
2018-07-09T19:59:36.689Z,1.80
2018-07-09T20:02:03.593Z,1.30
2018-07-09T20:04:29.890Z,1.20
2018-07-09T20:06:56.242Z,1.57
2018-07-09T20:09:28.641Z,2.33
2018-07-09T20:11:59.575Z,0.80
2018-07-09T20:14:31.653Z,1.80
2018-07-09T20:17:03.833Z,0.83
2018-07-09T20:19:30.251Z,1.53
2018-07-09T20:22:00.893Z,1.37
2018-07-09T20:24:27.171Z,0.93
2018-07-09T20:26:53.953Z,1.73
2018-07-09T20:29:20.720Z,0.77
2018-07-09T20:31:47.472Z,1.37
2018-07-09T20:34:13.757Z,1.27
2018-07-09T20:36:40.581Z,0.97
2018-07-09T20:39:07.252Z,1.47
2018-07-09T20:41:34.261Z,1.30
2018-07-09T20:44:01.258Z,1.20
2018-07-09T20:46:27.575Z,0.93
2018-07-09T20:48:53.892Z,0.90
2018-07-09T20:51:20.551Z,0.97
2018-07-09T20:53:46.871Z,0.90
2018-07-09T20:56:13.220Z,1.00
2018-07-09T20:58:39.967Z,0.70
2018-07-09T21:01:06.245Z,1.27
2018-07-09T21:03:32.562Z,1.03
2018-07-09T21:05:58.877Z,0.90
2018-07-09T21:08:25.165Z,0.80
2018-07-09T21:10:51.890Z,1.20
2018-07-09T21:13:18.206Z,1.03
2018-07-09T21:15:44.572Z,0.80
2018-07-09T21:18:14.858Z,1.13
2018-07-09T21:20:41.161Z,0.90
2018-07-09T21:23:07.473Z,1.00
2018-07-09T21:25:34.073Z,1.13
2018-07-09T21:28:00.405Z,0.77
2018-07-09T21:30:26.745Z,0.67
2018-07-09T21:32:53.401Z,1.23
2018-07-09T21:35:19.679Z,0.80
2018-07-09T21:37:46.903Z,0.93
2018-07-09T21:40:13.073Z,0.93
2018-07-09T21:42:39.843Z,1.10
2018-07-09T21:45:06.130Z,1.20
2018-07-09T21:47:32.743Z,0.60
2018-07-09T21:49:59.019Z,1.07
2018-07-09T21:52:25.297Z,1.37
2018-07-09T21:54:51.612Z,1.40
2018-07-09T21:57:17.893Z,1.00
2018-07-09T21:59:44.294Z,0.70
2018-07-09T22:02:10.965Z,0.90
2018-07-09T22:04:37.254Z,0.77
2018-07-09T22:07:04.228Z,1.07
2018-07-09T22:09:30.800Z,1.47
2018-07-09T22:11:57.094Z,0.73
2018-07-09T22:14:23.380Z,0.90
2018-07-09T22:16:50.015Z,1.00
2018-07-09T22:19:16.289Z,1.07
2018-07-09T22:21:43.670Z,1.00
2018-07-09T22:24:09.966Z,0.90
2018-07-09T22:26:36.254Z,0.90
2018-07-09T22:29:02.536Z,0.83
2018-07-09T22:31:30.078Z,1.17
2018-07-09T22:33:57.223Z,0.70
2018-07-09T22:36:24.370Z,0.87
2018-07-09T22:38:51.762Z,1.40
2018-07-09T22:41:18.894Z,1.77
2018-07-09T22:44:01.921Z,1.17
2018-07-09T22:46:29.079Z,1.17
2018-07-09T22:48:56.211Z,0.90
2018-07-09T22:51:23.467Z,1.20
2018-07-09T22:53:50.518Z,0.90
2018-07-09T22:56:17.661Z,0.60
2018-07-09T22:58:44.829Z,0.80
2018-07-09T23:01:16.309Z,0.87
2018-07-09T23:03:43.491Z,0.60
2018-07-09T23:06:10.709Z,1.27
2018-07-09T23:08:37.886Z,1.47
2018-07-09T23:12:20.767Z,0.50
2018-07-09T23:15:58.605Z,0.70
2018-07-09T23:18:37.607Z,1.03
2018-07-09T23:23:14.421Z,0.83
2018-07-09T23:25:40.745Z,0.60
2018-07-09T23:28:07.085Z,0.90
2018-07-09T23:30:33.429Z,1.20
2018-07-09T23:32:59.756Z,0.87
2018-07-09T23:35:26.079Z,0.60
2018-07-09T23:37:52.701Z,0.50
2018-07-09T23:40:19.029Z,0.83
2018-07-09T23:42:45.360Z,0.80
2018-07-09T23:45:12.009Z,0.80
2018-07-09T23:47:38.321Z,0.60
2018-07-09T23:50:04.631Z,0.83
2018-07-09T23:52:30.946Z,0.67
2018-07-09T23:54:57.741Z,0.40
2018-07-09T23:59:51.065Z,0.70
